This is the latest recevied weather packets stored in our database for station/object UR7D-10. If no packets are shown the sender has not sent any weather packets the latest 10 day(s).
| Time | Temp. | Humidity | Pressure | Rain* | Wind** | Luminosity | Snow |
|---|---|---|---|---|---|---|---|
| 1778036844 | 12.22° C | 66% | 1012.1 hPa | 0 mm | - | - | - |
| 1778033240 | 12.78° C | 63% | 1012 hPa | 0 mm | - | - | - |
| 1778029637 | 13.89° C | 56% | 1011.5 hPa | 0 mm | - | - | - |
| 1778026034 | 15.56° C | 51% | 1011.4 hPa | 0 mm | - | - | - |
| 1778022430 | 16.11° C | 49% | 1011.6 hPa | 0 mm | - | - | - |
| 1778015223 | 21.11° C | 34% | 1011.8 hPa | 0 mm | - | - | - |
| 1778011620 | 22.22° C | 35% | 1011.7 hPa | 0 mm | - | - | - |
| 1778008016 | 22.78° C | 36% | 1011.7 hPa | 0 mm | - | - | - |
| 1778004413 | 23.33° C | 34% | 1011.6 hPa | 0 mm | - | - | - |
| 1778000811 | 26.11° C | 30% | 1011.5 hPa | 0 mm | - | - | - |
| 1777993604 | 27.78° C | 26% | 1012.4 hPa | 0 mm | - | - | - |
| 1777990001 | 27.22° C | 25% | 1013.1 hPa | 0 mm | - | - | - |
| 1777986397 | 26.11° C | 26% | 1013.7 hPa | 0 mm | - | - | - |
| 1777982797 | 26.11° C | 28% | 1014.5 hPa | 0 mm | - | - | - |
| 1777971982 | 22.78° C | 33% | 1015.8 hPa | 0 mm | - | - | - |
| 1777968379 | 21.67° C | 40% | 1015.8 hPa | 0 mm | - | - | - |
| 1777964775 | 17.22° C | 50% | 1016.4 hPa | 0 mm | - | - | - |
| 1777961171 | 13.33° C | 59% | 1016.4 hPa | 0 mm | - | - | - |
| 1777957568 | 10.56° C | 67% | 1016.3 hPa | 0 mm | - | - | - |
| 1777953966 | 9.44° C | 70% | 1016.4 hPa | 0 mm | - | - | - |
| 1777946759 | 10° C | 69% | 1016.2 hPa | 0 mm | - | - | - |
| 1777943156 | 10° C | 65% | 1016 hPa | 0 mm | - | - | - |
| 1777939551 | 12.22° C | 61% | 1016.1 hPa | 0 mm | - | - | - |
| 1777935949 | 11.67° C | 62% | 1016.3 hPa | 0 mm | - | - | - |
| 1777932347 | 13.33° C | 57% | 1016.6 hPa | 0 mm | - | - | - |
* Rain latest hour (hover to see other rain measurements)
** Current wind speed in m/s (hover to see current wind gust speed)